createdAt,value
2017-11-09T00:01:28.671Z,39.90
2017-11-09T00:04:02.675Z,38.30
2017-11-09T00:06:30.121Z,38.90
2017-11-09T00:08:57.578Z,37.40
2017-11-09T00:11:25.027Z,37.75
2017-11-09T00:13:52.473Z,41.72
2017-11-09T00:16:19.969Z,39.92
2017-11-09T00:18:47.430Z,39.60
2017-11-09T00:21:14.897Z,39.63
2017-11-09T00:23:42.431Z,39.80
2017-11-09T00:26:10.682Z,38.47
2017-11-09T00:28:38.235Z,38.60
2017-11-09T00:31:05.713Z,40.63
2017-11-09T00:33:33.185Z,39.78
2017-11-09T00:36:00.679Z,37.50
2017-11-09T00:38:28.113Z,40.40
2017-11-09T00:40:56.323Z,39.40
2017-11-09T00:43:23.815Z,39.60
2017-11-09T00:45:51.263Z,40.17
2017-11-09T00:48:18.693Z,39.17
2017-11-09T00:50:46.162Z,39.33
2017-11-09T00:53:13.613Z,37.83
2017-11-09T00:55:41.094Z,38.42
2017-11-09T00:58:08.540Z,38.83
2017-11-09T01:00:36.010Z,41.25
2017-11-09T01:03:04.221Z,38.45
2017-11-09T01:05:31.689Z,38.83
2017-11-09T01:07:59.145Z,36.55
2017-11-09T01:10:27.369Z,38.90
2017-11-09T01:12:54.813Z,41.15
2017-11-09T01:15:23.041Z,38.72
2017-11-09T01:17:50.524Z,40.08
2017-11-09T01:20:17.987Z,40.05
2017-11-09T01:22:45.443Z,38.58
2017-11-09T01:25:12.907Z,39.38
2017-11-09T01:27:41.118Z,40.85
2017-11-09T01:30:08.598Z,41.80
2017-11-09T01:32:36.058Z,38.65
2017-11-09T01:35:03.513Z,41.63
2017-11-09T01:37:31.790Z,42.13
2017-11-09T01:40:00.051Z,37.83
2017-11-09T01:42:27.496Z,39.50
2017-11-09T01:44:54.958Z,39.60
2017-11-09T01:47:22.429Z,38.42
2017-11-09T01:49:49.901Z,39.80
2017-11-09T01:52:17.392Z,38.63
2017-11-09T01:54:44.853Z,39.92
2017-11-09T01:57:12.549Z,40.28
2017-11-09T01:59:40.063Z,40.88
2017-11-09T02:02:07.517Z,41.78
2017-11-09T02:04:34.958Z,40.00
2017-11-09T02:07:03.198Z,42.20
2017-11-09T02:09:30.660Z,41.65
2017-11-09T02:11:58.116Z,40.55
2017-11-09T02:14:25.569Z,40.60
2017-11-09T02:16:53.830Z,39.67
2017-11-09T02:19:21.313Z,42.08
2017-11-09T02:21:48.783Z,40.63
2017-11-09T02:24:16.229Z,41.50
2017-11-09T02:26:43.684Z,40.88
2017-11-09T02:29:11.166Z,43.25
2017-11-09T02:31:38.641Z,39.42
2017-11-09T02:34:06.114Z,39.90
2017-11-09T02:36:34.073Z,39.88
2017-11-09T02:39:01.541Z,40.78
2017-11-09T02:41:29.761Z,40.83
2017-11-09T02:43:57.227Z,39.60
2017-11-09T02:46:25.426Z,38.95
2017-11-09T02:48:52.904Z,41.00
2017-11-09T02:51:20.411Z,42.53
2017-11-09T02:53:47.857Z,38.97
2017-11-09T02:56:15.329Z,40.15
2017-11-09T02:58:42.815Z,39.45
2017-11-09T03:01:10.269Z,38.65
2017-11-09T03:03:37.789Z,40.15
2017-11-09T03:06:05.258Z,39.47
2017-11-09T03:08:32.714Z,38.78
2017-11-09T03:11:00.212Z,38.60
2017-11-09T03:13:27.640Z,41.53
2017-11-09T03:15:55.861Z,41.45
2017-11-09T03:18:23.344Z,39.25
2017-11-09T03:20:50.782Z,38.33
2017-11-09T03:23:19.010Z,41.13
2017-11-09T03:25:46.503Z,41.22
2017-11-09T03:28:13.955Z,40.38
2017-11-09T03:30:41.420Z,39.47
2017-11-09T03:33:08.870Z,39.90
2017-11-09T03:35:37.078Z,42.25
2017-11-09T03:38:04.520Z,39.65
2017-11-09T03:40:31.978Z,40.22
2017-11-09T03:42:59.502Z,39.95
2017-11-09T03:45:27.705Z,40.40
2017-11-09T03:47:55.206Z,39.88
2017-11-09T03:50:22.677Z,40.30
2017-11-09T03:52:50.446Z,40.55
2017-11-09T03:55:17.912Z,39.92
2017-11-09T03:57:49.736Z,38.70
2017-11-09T04:00:17.195Z,40.33
2017-11-09T04:02:44.658Z,40.00
2017-11-09T04:05:12.181Z,37.13
2017-11-09T04:07:40.530Z,40.20
2017-11-09T04:10:07.978Z,40.17
2017-11-09T04:12:35.457Z,40.50
2017-11-09T04:15:02.893Z,37.63
2017-11-09T04:17:31.183Z,40.38
2017-11-09T04:19:58.649Z,41.75
2017-11-09T04:22:26.100Z,39.50
2017-11-09T04:24:53.871Z,37.58
2017-11-09T04:27:21.333Z,38.92
2017-11-09T04:29:48.800Z,38.65
2017-11-09T04:32:16.246Z,37.58
2017-11-09T04:34:44.489Z,40.10
2017-11-09T04:37:11.934Z,39.95
2017-11-09T04:39:39.404Z,38.92
2017-11-09T04:42:08.204Z,38.63
2017-11-09T04:44:36.429Z,38.75
2017-11-09T04:47:03.872Z,40.12
2017-11-09T04:49:32.147Z,38.03
2017-11-09T04:51:59.593Z,40.30
2017-11-09T04:54:27.860Z,40.95
2017-11-09T04:56:55.331Z,39.20
2017-11-09T04:59:23.469Z,41.65
2017-11-09T05:01:50.914Z,42.00
2017-11-09T05:04:18.401Z,40.72
2017-11-09T05:06:45.906Z,42.08
2017-11-09T05:09:13.348Z,38.92
2017-11-09T05:11:41.385Z,42.20
2017-11-09T05:14:09.612Z,41.05
2017-11-09T05:16:37.072Z,41.78
2017-11-09T05:19:04.522Z,38.13
2017-11-09T05:21:31.977Z,42.08
2017-11-09T05:23:59.414Z,38.85
2017-11-09T05:26:26.889Z,41.63
2017-11-09T05:28:54.370Z,40.80
2017-11-09T05:31:21.829Z,38.85
2017-11-09T05:33:49.293Z,39.95
2017-11-09T05:36:16.797Z,40.10
2017-11-09T05:38:44.253Z,41.42
2017-11-09T05:41:11.714Z,39.03
2017-11-09T05:43:39.201Z,39.30
2017-11-09T05:46:06.666Z,39.92
2017-11-09T05:48:34.143Z,39.85
2017-11-09T05:51:01.621Z,39.78
2017-11-09T05:53:29.064Z,40.75
2017-11-09T05:55:56.551Z,38.72
2017-11-09T05:58:24.831Z,39.50
2017-11-09T06:00:52.286Z,41.17
2017-11-09T06:03:20.201Z,41.30
2017-11-09T06:05:48.420Z,41.00
2017-11-09T06:08:15.879Z,39.60
2017-11-09T06:10:43.334Z,38.83
2017-11-09T06:13:11.559Z,38.78
2017-11-09T06:15:39.232Z,39.60
2017-11-09T06:18:06.648Z,41.28
2017-11-09T06:20:38.088Z,39.53
2017-11-09T06:23:05.528Z,39.65
2017-11-09T06:25:33.744Z,41.83
2017-11-09T06:28:01.212Z,43.47
2017-11-09T06:30:28.664Z,40.42
2017-11-09T06:32:56.929Z,42.13
2017-11-09T06:35:25.127Z,40.80
2017-11-09T06:37:52.628Z,42.08
2017-11-09T06:40:20.081Z,41.55
2017-11-09T06:42:47.541Z,40.33
2017-11-09T06:45:14.989Z,41.37
2017-11-09T06:47:42.458Z,43.15
2017-11-09T06:50:10.080Z,40.60
2017-11-09T06:52:37.529Z,39.95
2017-11-09T06:55:04.982Z,40.30
2017-11-09T06:57:32.487Z,41.08
2017-11-09T06:59:59.957Z,40.35
2017-11-09T07:02:27.399Z,41.28
2017-11-09T07:04:54.871Z,40.47
2017-11-09T07:07:22.451Z,37.75
2017-11-09T07:09:49.915Z,38.95
2017-11-09T07:12:18.160Z,41.78
2017-11-09T07:14:45.598Z,42.42
2017-11-09T07:17:13.069Z,39.05
2017-11-09T07:19:40.525Z,38.25
2017-11-09T07:22:08.792Z,42.00
2017-11-09T07:24:36.293Z,41.00
2017-11-09T07:27:04.540Z,41.40
2017-11-09T07:29:32.023Z,39.15
2017-11-09T07:31:59.457Z,41.50
2017-11-09T07:34:26.913Z,41.75
2017-11-09T07:36:55.138Z,41.03
2017-11-09T07:39:22.622Z,41.08
2017-11-09T07:41:50.125Z,39.17
2017-11-09T07:44:17.585Z,41.28
2017-11-09T07:46:45.044Z,39.08
2017-11-09T07:49:12.486Z,41.13
2017-11-09T07:51:40.716Z,41.35
2017-11-09T07:54:08.148Z,39.65
2017-11-09T07:56:36.374Z,39.67
2017-11-09T07:59:03.919Z,39.10
2017-11-09T08:01:32.192Z,39.28
2017-11-09T08:03:59.652Z,38.03
2017-11-09T08:06:27.152Z,37.55
2017-11-09T08:08:55.382Z,38.65
2017-11-09T08:11:22.843Z,38.38
2017-11-09T08:13:50.429Z,38.15
2017-11-09T08:16:17.902Z,40.60
2017-11-09T08:18:45.377Z,37.72
2017-11-09T08:21:16.519Z,37.92
2017-11-09T08:23:44.796Z,39.08
2017-11-09T08:26:14.763Z,37.83
2017-11-09T08:28:46.322Z,42.15
2017-11-09T08:31:15.699Z,42.05
2017-11-09T08:33:43.253Z,43.33
2017-11-09T08:36:11.485Z,40.28
2017-11-09T08:38:39.715Z,39.97
2017-11-09T08:41:07.201Z,42.35
2017-11-09T08:43:34.700Z,38.85
2017-11-09T08:46:02.141Z,39.60
2017-11-09T08:48:29.624Z,39.22
2017-11-09T08:50:57.104Z,39.78
2017-11-09T08:53:24.577Z,41.15
2017-11-09T08:55:52.027Z,37.38
2017-11-09T08:58:19.533Z,39.95
2017-11-09T09:00:46.978Z,42.50
2017-11-09T09:03:14.434Z,39.60
2017-11-09T09:05:42.664Z,37.90
2017-11-09T09:08:10.123Z,40.97
2017-11-09T09:10:37.618Z,40.90
2017-11-09T09:13:05.083Z,39.10
2017-11-09T09:15:32.618Z,38.15
2017-11-09T09:18:00.065Z,37.67
2017-11-09T09:20:37.454Z,36.17
2017-11-09T09:23:04.939Z,39.00
2017-11-09T09:25:37.926Z,40.53
2017-11-09T09:28:22.056Z,39.28
2017-11-09T09:30:50.308Z,35.55
2017-11-09T09:33:19.871Z,39.00
2017-11-09T09:36:02.633Z,35.75
2017-11-09T09:38:54.693Z,38.30
2017-11-09T09:41:22.179Z,35.92
2017-11-09T09:43:49.686Z,35.80
2017-11-09T09:46:17.148Z,38.80
2017-11-09T09:48:45.377Z,35.90
2017-11-09T09:51:12.837Z,34.38
2017-11-09T09:53:40.321Z,34.70
2017-11-09T09:56:07.765Z,37.65
2017-11-09T09:58:36.015Z,35.05
2017-11-09T10:01:03.485Z,33.28
2017-11-09T10:03:30.963Z,34.42
2017-11-09T10:05:58.417Z,34.35
2017-11-09T10:08:25.893Z,34.50
2017-11-09T10:10:54.078Z,34.50
2017-11-09T10:13:21.554Z,35.95
2017-11-09T10:15:49.028Z,36.22
2017-11-09T10:18:16.501Z,35.25
2017-11-09T10:20:44.397Z,33.55
2017-11-09T10:23:11.893Z,35.65
2017-11-09T10:25:39.362Z,34.78
2017-11-09T10:28:06.823Z,34.75
2017-11-09T10:30:34.782Z,35.95
2017-11-09T10:33:02.245Z,36.20
2017-11-09T10:35:30.466Z,37.15
2017-11-09T10:37:58.114Z,38.80
2017-11-09T10:40:26.371Z,35.90
2017-11-09T10:42:53.832Z,35.47
2017-11-09T10:45:22.006Z,36.15
2017-11-09T10:47:49.461Z,36.58
2017-11-09T10:50:16.915Z,40.38
2017-11-09T10:52:45.153Z,38.92
2017-11-09T10:55:12.603Z,34.75
2017-11-09T10:57:40.105Z,35.58
2017-11-09T11:00:07.558Z,37.00
2017-11-09T11:02:35.039Z,37.25
2017-11-09T11:05:02.509Z,37.67
2017-11-09T11:07:29.948Z,35.22
2017-11-09T11:09:57.445Z,36.20
2017-11-09T11:12:25.667Z,35.90
2017-11-09T11:14:53.132Z,37.55
2017-11-09T11:17:20.695Z,37.17
2017-11-09T11:19:48.987Z,36.03
2017-11-09T11:22:16.428Z,36.85
2017-11-09T11:24:43.894Z,37.47
2017-11-09T11:27:11.341Z,36.38
2017-11-09T11:29:38.805Z,34.13
2017-11-09T11:32:06.306Z,29.98
2017-11-09T11:34:33.758Z,31.10
2017-11-09T11:37:01.224Z,29.80
2017-11-09T11:39:28.676Z,29.23
2017-11-09T11:41:56.913Z,29.20
2017-11-09T11:44:24.382Z,29.67
2017-11-09T11:46:51.882Z,26.80
2017-11-09T11:49:19.344Z,28.45
2017-11-09T11:51:46.812Z,27.83
2017-11-09T11:54:14.289Z,26.98
2017-11-09T11:56:41.871Z,28.83
2017-11-09T11:59:09.313Z,25.90
2017-11-09T12:01:36.779Z,28.20
2017-11-09T12:04:05.018Z,30.30
2017-11-09T12:06:36.313Z,27.30
2017-11-09T12:09:03.806Z,30.02
2017-11-09T12:11:31.280Z,28.12
2017-11-09T12:13:58.756Z,29.87
2017-11-09T12:16:26.229Z,27.80
2017-11-09T12:18:54.467Z,29.15
2017-11-09T12:21:21.918Z,28.27
2017-11-09T12:23:49.399Z,30.25
2017-11-09T12:26:16.871Z,28.20
2017-11-09T12:28:44.323Z,27.05
2017-11-09T12:31:12.571Z,27.25
2017-11-09T12:33:40.045Z,30.58
2017-11-09T12:36:07.515Z,27.10
2017-11-09T12:38:34.977Z,26.50
2017-11-09T12:41:02.527Z,26.20
2017-11-09T12:43:29.977Z,27.37
2017-11-09T12:45:57.417Z,26.55
2017-11-09T12:48:24.900Z,26.17
2017-11-09T12:50:52.360Z,28.60
2017-11-09T12:53:19.829Z,27.85
2017-11-09T12:55:47.286Z,26.90
2017-11-09T12:58:15.725Z,26.48
2017-11-09T13:00:43.179Z,28.58
2017-11-09T13:03:10.653Z,27.27
2017-11-09T13:05:38.158Z,27.17
2017-11-09T13:08:05.639Z,27.75
2017-11-09T13:10:33.105Z,29.20
2017-11-09T13:13:00.579Z,26.12
2017-11-09T13:15:28.141Z,27.85
2017-11-09T13:17:55.597Z,26.85
2017-11-09T13:20:23.082Z,27.37
2017-11-09T13:22:50.552Z,25.37
2017-11-09T13:25:18.014Z,30.02
2017-11-09T13:27:45.484Z,27.87
2017-11-09T13:30:12.938Z,27.13
2017-11-09T13:32:42.018Z,27.27
2017-11-09T13:35:09.522Z,26.80
2017-11-09T13:37:37.754Z,27.55
2017-11-09T13:40:05.207Z,28.15
2017-11-09T13:42:32.685Z,26.83
2017-11-09T13:45:00.150Z,27.42
2017-11-09T13:47:27.660Z,27.62
2017-11-09T13:49:55.123Z,25.95
2017-11-09T13:52:22.565Z,27.33
2017-11-09T13:54:50.810Z,27.85
2017-11-09T13:57:18.494Z,28.52
2017-11-09T13:59:46.524Z,25.95
2017-11-09T14:02:14.741Z,29.37
2017-11-09T14:04:42.221Z,28.45
2017-11-09T14:07:09.717Z,26.55
2017-11-09T14:09:37.207Z,26.58
2017-11-09T14:12:04.738Z,27.05
2017-11-09T14:14:32.198Z,27.00
2017-11-09T14:17:00.435Z,27.35
2017-11-09T14:19:27.982Z,24.80
2017-11-09T14:21:55.448Z,27.55
2017-11-09T14:24:22.941Z,27.02
2017-11-09T14:26:51.115Z,26.67
2017-11-09T14:29:18.605Z,26.42
2017-11-09T14:31:46.070Z,26.83
2017-11-09T14:34:14.293Z,25.37
2017-11-09T14:36:41.766Z,25.35
2017-11-09T14:39:09.228Z,25.62
2017-11-09T14:41:37.047Z,26.58
2017-11-09T14:44:04.583Z,25.62
2017-11-09T14:46:34.881Z,29.50
2017-11-09T14:49:02.332Z,26.87
2017-11-09T14:51:29.816Z,27.33
2017-11-09T14:53:57.266Z,25.85
2017-11-09T14:56:24.785Z,29.42
2017-11-09T14:58:53.025Z,27.87
2017-11-09T15:01:20.482Z,28.35
2017-11-09T15:03:47.944Z,29.15
2017-11-09T15:06:16.211Z,27.15
2017-11-09T15:08:43.673Z,26.73
2017-11-09T15:11:11.129Z,27.40
2017-11-09T15:13:38.693Z,28.70
2017-11-09T15:16:06.157Z,26.87
2017-11-09T15:18:33.628Z,28.67
2017-11-09T15:21:01.093Z,26.85
2017-11-09T15:23:28.544Z,27.05
2017-11-09T15:25:56.002Z,26.92
2017-11-09T15:28:23.960Z,26.20
2017-11-09T15:30:51.424Z,27.05
2017-11-09T15:33:18.875Z,25.60
2017-11-09T15:35:52.013Z,25.92
2017-11-09T15:38:19.458Z,27.75
2017-11-09T15:40:47.707Z,25.48
2017-11-09T15:43:15.150Z,26.50
2017-11-09T15:45:42.590Z,27.50
2017-11-09T15:48:11.555Z,27.13
2017-11-09T15:50:39.018Z,25.83
2017-11-09T15:53:06.483Z,27.10
2017-11-09T15:55:33.966Z,25.08
2017-11-09T15:58:01.454Z,25.15
2017-11-09T16:00:28.915Z,23.90
2017-11-09T16:02:56.451Z,25.70
2017-11-09T16:05:25.381Z,25.45
2017-11-09T16:07:55.445Z,27.00
2017-11-09T16:10:22.970Z,25.77
2017-11-09T16:12:51.214Z,25.02
2017-11-09T16:15:18.686Z,26.12
2017-11-09T16:17:46.198Z,23.98
2017-11-09T16:20:13.650Z,23.83
2017-11-09T16:22:41.136Z,23.02
2017-11-09T16:25:08.599Z,26.52
2017-11-09T16:27:36.049Z,24.02
2017-11-09T16:30:09.629Z,24.92
2017-11-09T16:32:37.871Z,22.92
2017-11-09T16:35:05.322Z,24.05
2017-11-09T16:37:32.808Z,24.08
2017-11-09T16:40:00.266Z,26.62
2017-11-09T16:42:27.729Z,23.83
2017-11-09T16:44:55.207Z,23.00
2017-11-09T16:47:22.695Z,22.17
2017-11-09T16:49:51.069Z,21.83
2017-11-09T16:52:18.617Z,23.10
2017-11-09T16:54:46.074Z,24.40
2017-11-09T16:57:13.493Z,26.17
2017-11-09T16:59:41.798Z,24.20
2017-11-09T17:02:09.304Z,24.15
2017-11-09T17:04:36.771Z,23.02
2017-11-09T17:07:04.301Z,24.02
2017-11-09T17:09:31.763Z,23.77
2017-11-09T17:11:59.208Z,24.63
2017-11-09T17:14:26.699Z,23.98
2017-11-09T17:16:54.178Z,19.10
2017-11-09T17:19:21.655Z,23.08
2017-11-09T17:21:49.093Z,23.23
2017-11-09T17:24:16.563Z,24.33
2017-11-09T17:26:44.625Z,21.67
2017-11-09T17:29:12.893Z,22.10
2017-11-09T17:31:40.329Z,20.45
2017-11-09T17:34:07.785Z,22.75
2017-11-09T17:36:35.277Z,22.87
2017-11-09T17:39:02.777Z,22.77
2017-11-09T17:41:30.201Z,23.83
2017-11-09T17:43:59.641Z,26.98
2017-11-09T17:46:27.137Z,26.42
2017-11-09T17:48:54.587Z,25.02
2017-11-09T17:51:22.042Z,24.48
2017-11-09T17:53:50.315Z,26.58
2017-11-09T17:56:18.569Z,24.40
2017-11-09T17:58:46.043Z,21.77
2017-11-09T18:01:13.509Z,24.95
2017-11-09T18:03:40.997Z,26.87
2017-11-09T18:06:08.571Z,28.27
2017-11-09T18:08:36.043Z,28.23
2017-11-09T18:11:04.131Z,25.73
2017-11-09T18:13:31.593Z,26.90
2017-11-09T18:15:59.064Z,25.35
2017-11-09T18:18:26.510Z,26.45
2017-11-09T18:20:54.793Z,27.13
2017-11-09T18:23:28.802Z,27.90
2017-11-09T18:25:56.256Z,27.40
2017-11-09T18:28:23.726Z,26.40
2017-11-09T18:30:51.176Z,25.77
2017-11-09T18:33:18.657Z,25.23
2017-11-09T18:35:46.101Z,25.90
2017-11-09T18:38:14.382Z,27.02
2017-11-09T18:40:41.826Z,28.73
2017-11-09T18:43:09.342Z,26.12
2017-11-09T18:45:37.677Z,26.05
2017-11-09T18:48:05.104Z,28.67
2017-11-09T18:50:32.599Z,27.50
2017-11-09T18:53:00.846Z,27.20
2017-11-09T18:55:28.389Z,28.45
2017-11-09T18:57:55.854Z,28.65
2017-11-09T19:00:23.354Z,27.23
2017-11-09T19:02:50.797Z,29.80
2017-11-09T19:05:19.054Z,26.90
2017-11-09T19:07:46.503Z,29.17
2017-11-09T19:10:13.958Z,27.55
2017-11-09T19:12:41.422Z,26.50
2017-11-09T19:15:08.906Z,27.08
2017-11-09T19:17:36.383Z,24.92
2017-11-09T19:20:04.236Z,25.02
2017-11-09T19:22:32.521Z,24.27
2017-11-09T19:25:00.796Z,25.77
2017-11-09T19:27:28.307Z,24.75
2017-11-09T19:29:56.530Z,24.52
2017-11-09T19:32:24.845Z,23.80
2017-11-09T19:34:52.339Z,22.10
2017-11-09T19:37:20.268Z,23.70
2017-11-09T19:39:47.804Z,21.58
2017-11-09T19:42:15.269Z,22.37
2017-11-09T19:44:42.846Z,22.92
2017-11-09T19:47:10.307Z,23.65
2017-11-09T19:49:37.767Z,22.73
2017-11-09T19:52:05.291Z,22.02
2017-11-09T19:54:32.980Z,21.55
2017-11-09T19:57:01.237Z,22.42
2017-11-09T19:59:28.697Z,23.75
2017-11-09T20:01:56.166Z,22.48
2017-11-09T20:04:23.643Z,21.00
2017-11-09T20:06:51.119Z,20.88
2017-11-09T20:09:18.585Z,22.80
2017-11-09T20:11:46.041Z,19.10
2017-11-09T20:14:13.518Z,21.48
2017-11-09T20:16:40.984Z,19.33
2017-11-09T20:19:09.226Z,20.02
2017-11-09T20:21:36.760Z,20.23
2017-11-09T20:24:04.241Z,21.17
2017-11-09T20:26:31.718Z,19.70
2017-11-09T20:28:59.175Z,19.60
2017-11-09T20:31:27.406Z,20.27
2017-11-09T20:33:54.872Z,20.50
2017-11-09T20:36:22.365Z,20.90
2017-11-09T20:38:49.881Z,21.42
2017-11-09T20:41:19.494Z,20.05
2017-11-09T20:43:50.001Z,20.52
2017-11-09T20:46:20.522Z,19.55
2017-11-09T20:48:48.727Z,20.58
2017-11-09T20:51:16.460Z,21.67
2017-11-09T20:53:44.510Z,19.05
2017-11-09T20:56:11.972Z,20.95
2017-11-09T20:58:39.818Z,18.62
2017-11-09T21:01:10.107Z,20.12
2017-11-09T21:03:37.570Z,19.48
2017-11-09T21:06:05.045Z,17.67
2017-11-09T21:08:32.583Z,19.23
2017-11-09T21:11:00.016Z,17.45
2017-11-09T21:13:27.570Z,18.70
2017-11-09T21:15:55.036Z,19.92
2017-11-09T21:18:23.117Z,17.95
2017-11-09T21:20:50.601Z,18.80
2017-11-09T21:23:18.691Z,18.00
2017-11-09T21:25:46.149Z,20.20
2017-11-09T21:28:13.717Z,18.33
2017-11-09T21:30:42.033Z,18.02
2017-11-09T21:33:09.499Z,17.58
2017-11-09T21:35:37.744Z,19.40
2017-11-09T21:38:05.282Z,21.02
2017-11-09T21:40:32.885Z,20.08
2017-11-09T21:43:00.399Z,19.20
2017-11-09T21:45:28.847Z,18.87
2017-11-09T21:47:56.302Z,17.92
2017-11-09T21:50:27.713Z,19.92
2017-11-09T21:52:55.171Z,18.77
2017-11-09T21:55:22.683Z,17.75
2017-11-09T21:57:50.145Z,16.65
2017-11-09T22:00:17.618Z,17.65
2017-11-09T22:02:45.146Z,17.05
2017-11-09T22:05:12.626Z,16.10
2017-11-09T22:07:40.098Z,17.62
2017-11-09T22:10:07.596Z,17.77
2017-11-09T22:12:35.066Z,17.98
2017-11-09T22:15:02.540Z,17.27
2017-11-09T22:17:30.022Z,18.25
2017-11-09T22:19:57.528Z,18.92
2017-11-09T22:22:24.975Z,15.77
2017-11-09T22:24:52.498Z,16.65
2017-11-09T22:27:20.783Z,16.70
2017-11-09T22:29:48.262Z,17.55
2017-11-09T22:32:15.731Z,16.15
2017-11-09T22:34:43.226Z,17.17
2017-11-09T22:37:11.506Z,17.08
2017-11-09T22:39:39.724Z,15.80
2017-11-09T22:42:07.188Z,16.70
2017-11-09T22:44:36.330Z,18.55
2017-11-09T22:47:03.800Z,17.67
2017-11-09T22:49:31.278Z,16.70
2017-11-09T22:51:58.715Z,16.55
2017-11-09T22:54:26.945Z,18.08
2017-11-09T22:56:54.399Z,17.12
2017-11-09T22:59:21.861Z,17.17
2017-11-09T23:01:50.073Z,17.42
2017-11-09T23:04:17.550Z,15.75
2017-11-09T23:06:45.014Z,19.17
2017-11-09T23:09:12.474Z,17.67
2017-11-09T23:11:39.934Z,16.27
2017-11-09T23:14:07.394Z,17.17
2017-11-09T23:16:34.886Z,18.08
2017-11-09T23:19:02.325Z,17.40
2017-11-09T23:21:29.768Z,17.10
2017-11-09T23:23:57.239Z,16.70
2017-11-09T23:26:25.450Z,17.98
2017-11-09T23:28:52.911Z,16.50
2017-11-09T23:31:20.419Z,17.62
2017-11-09T23:33:47.884Z,18.98
2017-11-09T23:36:15.350Z,16.60
2017-11-09T23:38:42.828Z,17.58
2017-11-09T23:41:11.120Z,17.23
2017-11-09T23:43:38.583Z,17.33
2017-11-09T23:46:08.543Z,17.67
2017-11-09T23:48:35.993Z,19.42
2017-11-09T23:51:03.455Z,19.15
2017-11-09T23:53:31.665Z,18.52
2017-11-09T23:55:59.129Z,17.33
2017-11-09T23:58:26.570Z,20.50
